createdAt,value
2022-09-06T00:00:13.185Z,13.84
2022-09-06T00:01:00.224Z,13.92
2022-09-06T00:01:47.166Z,13.89
2022-09-06T00:02:34.419Z,13.86
2022-09-06T00:03:21.412Z,13.83
2022-09-06T00:04:11.819Z,13.85
2022-09-06T00:05:01.632Z,13.82
2022-09-06T00:05:48.874Z,13.84
2022-09-06T00:06:35.783Z,13.84
2022-09-06T00:07:22.683Z,13.84
2022-09-06T00:08:09.633Z,13.83
2022-09-06T00:08:56.582Z,13.82
2022-09-06T00:09:43.895Z,13.84
2022-09-06T00:10:31.634Z,13.81
2022-09-06T00:11:19.028Z,13.84
2022-09-06T00:12:06.208Z,13.82
2022-09-06T00:12:53.034Z,13.82
2022-09-06T00:13:40.293Z,13.83
2022-09-06T00:14:27.164Z,13.84
2022-09-06T00:15:14.221Z,13.86
2022-09-06T00:16:08.685Z,13.82
2022-09-06T00:16:55.656Z,13.76
2022-09-06T00:17:45.013Z,13.77
2022-09-06T00:18:31.964Z,13.74
2022-09-06T00:19:18.955Z,13.80
2022-09-06T00:20:09.342Z,13.82
2022-09-06T00:20:56.183Z,13.78
2022-09-06T00:21:43.115Z,13.74
2022-09-06T00:22:29.914Z,13.74
2022-09-06T00:23:16.913Z,13.67
2022-09-06T00:24:04.147Z,13.68
2022-09-06T00:24:50.984Z,13.65
2022-09-06T00:25:37.866Z,13.65
2022-09-06T00:26:24.924Z,13.63
2022-09-06T00:27:11.743Z,13.62
2022-09-06T00:28:00.305Z,13.65
2022-09-06T00:28:47.466Z,13.66
2022-09-06T00:29:34.894Z,13.67
2022-09-06T00:30:21.753Z,13.65
2022-09-06T00:31:13.454Z,13.64
2022-09-06T00:32:12.894Z,13.65
2022-09-06T00:32:59.704Z,13.63
2022-09-06T00:33:46.723Z,13.70
2022-09-06T00:34:33.677Z,13.65
2022-09-06T00:35:22.085Z,13.66
2022-09-06T00:36:09.727Z,13.66
2022-09-06T00:36:56.562Z,13.65
2022-09-06T00:37:43.372Z,13.63
2022-09-06T00:38:30.274Z,13.63
2022-09-06T00:39:17.144Z,13.65
2022-09-06T00:40:04.291Z,13.64
2022-09-06T00:40:51.224Z,13.64
2022-09-06T00:41:38.044Z,13.63
2022-09-06T00:42:24.743Z,13.63
2022-09-06T00:43:11.535Z,13.62
2022-09-06T00:43:58.713Z,13.61
2022-09-06T00:44:45.624Z,13.62
2022-09-06T00:45:32.904Z,13.63
2022-09-06T00:46:24.358Z,13.62
2022-09-06T00:47:11.344Z,13.61
2022-09-06T00:48:00.182Z,13.63
2022-09-06T00:48:50.003Z,13.65
2022-09-06T00:49:44.783Z,13.63
2022-09-06T00:50:31.713Z,13.62
2022-09-06T00:51:18.955Z,13.62
2022-09-06T00:52:09.623Z,13.61
2022-09-06T00:52:56.466Z,13.64
2022-09-06T00:53:43.494Z,13.61
2022-09-06T00:54:30.564Z,13.61
2022-09-06T00:55:17.764Z,13.63
2022-09-06T00:56:05.113Z,13.61
2022-09-06T00:56:52.063Z,13.62
2022-09-06T00:57:39.553Z,13.58
2022-09-06T00:58:27.438Z,13.59
2022-09-06T00:59:15.544Z,13.58
2022-09-06T01:00:04.208Z,13.55
2022-09-06T01:00:51.395Z,13.56
2022-09-06T01:01:38.633Z,13.57
2022-09-06T01:02:26.111Z,13.54
2022-09-06T01:03:13.104Z,13.59
2022-09-06T01:04:00.165Z,13.57
2022-09-06T01:04:48.524Z,13.57
2022-09-06T01:06:02.943Z,13.56
2022-09-06T01:06:55.893Z,13.56
2022-09-06T01:07:57.195Z,13.58
2022-09-06T01:08:46.665Z,13.56
2022-09-06T01:09:48.763Z,13.53
2022-09-06T01:11:09.044Z,13.56
2022-09-06T01:12:13.924Z,13.52
2022-09-06T01:13:00.838Z,13.57
2022-09-06T01:14:11.633Z,13.59
2022-09-06T01:15:06.134Z,13.56
2022-09-06T01:16:30.873Z,13.56
2022-09-06T01:17:36.468Z,13.55
2022-09-06T01:18:36.197Z,13.53
2022-09-06T01:19:50.206Z,13.56
2022-09-06T01:20:45.993Z,13.54
2022-09-06T01:22:00.183Z,13.51
2022-09-06T01:23:14.794Z,13.52
2022-09-06T01:24:40.174Z,13.54
2022-09-06T01:25:50.924Z,13.54
2022-09-06T01:27:02.144Z,13.50
2022-09-06T01:27:48.945Z,13.54
2022-09-06T01:28:43.529Z,13.60
2022-09-06T01:29:40.097Z,13.60
2022-09-06T01:30:27.012Z,13.61
2022-09-06T01:31:22.989Z,13.62
2022-09-06T01:32:09.803Z,13.55
2022-09-06T01:33:04.013Z,13.54
2022-09-06T01:34:06.120Z,13.51
2022-09-06T01:34:57.103Z,13.51
2022-09-06T01:35:55.273Z,13.50
2022-09-06T01:37:08.955Z,13.53
2022-09-06T01:37:57.455Z,13.52
2022-09-06T01:38:44.295Z,13.51
2022-09-06T01:39:34.373Z,13.53
2022-09-06T01:40:21.183Z,13.54
2022-09-06T01:41:09.191Z,13.50
2022-09-06T01:41:56.964Z,13.48
2022-09-06T01:42:45.704Z,13.46
2022-09-06T01:43:35.823Z,13.44
2022-09-06T01:44:23.343Z,13.42
2022-09-06T01:45:14.314Z,13.44
2022-09-06T01:46:13.358Z,13.40
2022-09-06T01:47:25.303Z,13.43
2022-09-06T01:48:45.303Z,13.41
2022-09-06T01:49:47.024Z,13.40
2022-09-06T01:51:11.243Z,13.38
2022-09-06T01:52:08.284Z,13.40
2022-09-06T01:53:20.106Z,13.43
2022-09-06T01:54:33.713Z,13.45
2022-09-06T01:55:32.064Z,13.36
2022-09-06T01:56:50.735Z,13.34
2022-09-06T01:57:58.632Z,13.38
2022-09-06T01:59:11.524Z,13.41
2022-09-06T02:00:10.066Z,13.41
2022-09-06T02:01:14.843Z,13.36
2022-09-06T02:02:17.033Z,13.34
2022-09-06T02:03:25.844Z,13.33
2022-09-06T02:04:23.864Z,13.36
2022-09-06T02:05:32.971Z,13.38
2022-09-06T02:06:27.031Z,13.39
2022-09-06T02:07:19.494Z,13.35
2022-09-06T02:08:11.303Z,13.33
2022-09-06T02:09:12.133Z,13.33
2022-09-06T02:10:25.074Z,13.35
2022-09-06T02:11:14.663Z,13.36
2022-09-06T02:12:02.464Z,13.34
2022-09-06T02:12:53.867Z,13.31
2022-09-06T02:13:45.903Z,13.33
2022-09-06T02:14:51.545Z,13.25
2022-09-06T02:15:42.993Z,13.26
2022-09-06T02:16:31.119Z,13.28
2022-09-06T02:17:20.623Z,13.29
2022-09-06T02:18:14.124Z,13.29
2022-09-06T02:19:09.725Z,13.28
2022-09-06T02:20:24.222Z,13.30
2022-09-06T02:21:13.723Z,13.26
2022-09-06T02:22:03.143Z,13.26
2022-09-06T02:22:50.983Z,13.25
2022-09-06T02:23:40.655Z,13.23
2022-09-06T02:24:31.426Z,13.25
2022-09-06T02:25:27.873Z,13.26
2022-09-06T02:26:18.832Z,13.30
2022-09-06T02:27:05.713Z,13.30
2022-09-06T02:27:52.932Z,13.25
2022-09-06T02:28:40.106Z,13.19
2022-09-06T02:29:27.653Z,13.19
2022-09-06T02:30:14.524Z,13.14
2022-09-06T02:31:04.071Z,13.11
2022-09-06T02:32:06.828Z,13.12
2022-09-06T02:32:59.324Z,13.13
2022-09-06T02:33:46.703Z,13.11
2022-09-06T02:34:33.534Z,13.11
2022-09-06T02:35:20.464Z,13.11
2022-09-06T02:36:09.483Z,13.06
2022-09-06T02:36:56.524Z,13.07
2022-09-06T02:37:44.175Z,13.10
2022-09-06T02:38:31.537Z,13.08
2022-09-06T02:39:18.343Z,13.05
2022-09-06T02:40:06.289Z,13.10
2022-09-06T02:40:54.514Z,13.06
2022-09-06T02:41:42.654Z,13.12
2022-09-06T02:42:29.524Z,13.10
2022-09-06T02:43:16.375Z,13.10
2022-09-06T02:44:03.564Z,13.13
2022-09-06T02:44:50.523Z,13.14
2022-09-06T02:45:37.828Z,13.12
2022-09-06T02:46:24.973Z,13.11
2022-09-06T02:47:11.923Z,13.13
2022-09-06T02:47:58.783Z,13.10
2022-09-06T02:48:46.868Z,13.12
2022-09-06T02:49:33.708Z,13.12
2022-09-06T02:50:20.554Z,13.10
2022-09-06T02:51:08.905Z,13.10
2022-09-06T02:51:55.951Z,13.05
2022-09-06T02:52:43.022Z,13.02
2022-09-06T02:53:29.904Z,13.05
2022-09-06T02:54:16.824Z,13.05
2022-09-06T02:55:04.739Z,13.10
2022-09-06T02:55:51.665Z,13.12
2022-09-06T02:56:38.582Z,13.11
2022-09-06T02:57:25.305Z,13.10
2022-09-06T02:58:12.294Z,13.03
2022-09-06T02:58:59.215Z,13.03
2022-09-06T02:59:46.483Z,13.00
2022-09-06T03:00:33.924Z,12.97
2022-09-06T03:01:20.881Z,12.99
2022-09-06T03:02:07.987Z,13.00
2022-09-06T03:02:56.023Z,12.96
2022-09-06T03:03:42.983Z,12.91
2022-09-06T03:04:29.861Z,12.97
2022-09-06T03:05:16.944Z,12.97
2022-09-06T03:06:03.864Z,12.95
2022-09-06T03:06:50.664Z,12.94
2022-09-06T03:07:37.553Z,12.91
2022-09-06T03:08:33.614Z,12.94
2022-09-06T03:09:20.773Z,12.90
2022-09-06T03:10:07.946Z,12.92
2022-09-06T03:10:56.496Z,12.86
2022-09-06T03:11:43.343Z,12.86
2022-09-06T03:12:30.176Z,12.87
2022-09-06T03:13:17.311Z,12.87
2022-09-06T03:14:04.217Z,12.85
2022-09-06T03:14:54.818Z,12.82
2022-09-06T03:15:42.024Z,12.84
2022-09-06T03:16:28.925Z,12.86
2022-09-06T03:17:15.703Z,12.85
2022-09-06T03:18:02.603Z,12.82
2022-09-06T03:18:49.484Z,12.83
2022-09-06T03:19:36.224Z,12.85
2022-09-06T03:20:23.033Z,12.85
2022-09-06T03:21:10.142Z,12.84
2022-09-06T03:21:56.903Z,12.88
2022-09-06T03:22:43.711Z,12.87
2022-09-06T03:23:30.524Z,12.83
2022-09-06T03:24:17.532Z,12.84
2022-09-06T03:25:04.604Z,12.82
2022-09-06T03:25:51.683Z,12.79
2022-09-06T03:26:38.465Z,12.78
2022-09-06T03:27:25.304Z,12.79
2022-09-06T03:28:13.055Z,12.76
2022-09-06T03:28:59.893Z,12.77
2022-09-06T03:29:46.764Z,12.76
2022-09-06T03:30:33.690Z,12.78
2022-09-06T03:31:20.606Z,12.77
2022-09-06T03:32:07.394Z,12.72
2022-09-06T03:32:54.272Z,12.72
2022-09-06T03:33:41.207Z,12.72
2022-09-06T03:34:28.004Z,12.73
2022-09-06T03:35:15.418Z,12.73
2022-09-06T03:36:03.373Z,12.76
2022-09-06T03:36:50.274Z,12.70
2022-09-06T03:37:37.272Z,12.66
2022-09-06T03:38:25.635Z,12.72
2022-09-06T03:39:12.564Z,12.74
2022-09-06T03:40:00.066Z,12.74
2022-09-06T03:40:50.665Z,12.75
2022-09-06T03:41:38.383Z,12.72
2022-09-06T03:42:26.816Z,12.72
2022-09-06T03:43:15.038Z,12.68
2022-09-06T03:44:02.224Z,12.68
2022-09-06T03:44:49.074Z,12.66
2022-09-06T03:45:36.023Z,12.68
2022-09-06T03:46:23.018Z,12.69
2022-09-06T03:47:09.933Z,12.71
2022-09-06T03:47:56.752Z,12.73
2022-09-06T03:48:43.584Z,12.73
2022-09-06T03:49:30.495Z,12.76
2022-09-06T03:50:17.514Z,12.78
2022-09-06T03:51:04.356Z,12.72
2022-09-06T03:51:51.291Z,12.70
2022-09-06T03:52:38.083Z,12.70
2022-09-06T03:53:26.540Z,12.73
2022-09-06T03:54:14.066Z,12.69
2022-09-06T03:55:00.883Z,12.66
2022-09-06T03:55:52.884Z,12.63
2022-09-06T03:56:39.723Z,12.62
2022-09-06T03:57:26.713Z,12.64
2022-09-06T03:58:14.404Z,12.65
2022-09-06T03:59:01.283Z,12.67
2022-09-06T03:59:48.324Z,12.70
2022-09-06T04:00:35.122Z,12.71
2022-09-06T04:01:22.004Z,12.75
2022-09-06T04:02:09.202Z,12.71
2022-09-06T04:03:00.986Z,12.70
2022-09-06T04:03:48.496Z,12.69
2022-09-06T04:04:35.394Z,12.68
2022-09-06T04:05:22.224Z,12.64
2022-09-06T04:06:09.564Z,12.63
2022-09-06T04:06:56.473Z,12.62
2022-09-06T04:07:43.834Z,12.62
2022-09-06T04:08:32.716Z,12.64
2022-09-06T04:09:19.514Z,12.63
2022-09-06T04:10:07.194Z,12.66
2022-09-06T04:10:55.037Z,12.65
2022-09-06T04:11:45.026Z,12.68
2022-09-06T04:12:32.015Z,12.66
2022-09-06T04:13:18.859Z,12.66
2022-09-06T04:14:05.765Z,12.60
2022-09-06T04:14:52.692Z,12.64
2022-09-06T04:15:39.473Z,12.64
2022-09-06T04:16:26.308Z,12.63
2022-09-06T04:17:14.863Z,12.69
2022-09-06T04:18:04.926Z,12.71
2022-09-06T04:18:54.284Z,12.73
2022-09-06T04:19:41.194Z,12.75
2022-09-06T04:20:28.003Z,12.74
2022-09-06T04:21:14.804Z,12.73
2022-09-06T04:22:01.713Z,12.74
2022-09-06T04:22:48.574Z,12.71
2022-09-06T04:23:39.791Z,12.75
2022-09-06T04:24:26.883Z,12.77
2022-09-06T04:25:14.173Z,12.74
2022-09-06T04:26:01.055Z,12.74
2022-09-06T04:26:47.843Z,12.77
2022-09-06T04:27:35.151Z,12.81
2022-09-06T04:28:22.800Z,12.79
2022-09-06T04:29:09.645Z,12.74
2022-09-06T04:29:56.864Z,12.76
2022-09-06T04:30:43.938Z,12.81
2022-09-06T04:31:30.827Z,12.82
2022-09-06T04:32:17.713Z,12.83
2022-09-06T04:33:04.613Z,12.83
2022-09-06T04:33:51.415Z,12.87
2022-09-06T04:34:38.206Z,12.92
2022-09-06T04:35:25.087Z,12.92
2022-09-06T04:36:12.799Z,12.97
2022-09-06T04:36:59.664Z,13.01
2022-09-06T04:37:46.546Z,12.99
2022-09-06T04:38:42.188Z,13.01
2022-09-06T04:39:29.036Z,13.01
2022-09-06T04:40:16.083Z,13.10
2022-09-06T04:41:03.423Z,13.10
2022-09-06T04:41:50.373Z,13.13
2022-09-06T04:42:37.103Z,13.09
2022-09-06T04:43:24.453Z,13.04
2022-09-06T04:44:11.226Z,13.05
2022-09-06T04:44:58.214Z,13.11
2022-09-06T04:45:45.421Z,13.15
2022-09-06T04:46:32.323Z,13.16
2022-09-06T04:47:19.623Z,13.17
2022-09-06T04:48:06.482Z,13.18
2022-09-06T04:48:55.185Z,13.18
2022-09-06T04:49:42.706Z,13.21
2022-09-06T04:50:29.744Z,13.28
2022-09-06T04:51:17.314Z,13.33
2022-09-06T04:52:04.624Z,13.40
2022-09-06T04:52:51.503Z,13.42
2022-09-06T04:53:38.306Z,13.44
2022-09-06T04:54:25.225Z,13.43
2022-09-06T04:55:12.256Z,13.45
2022-09-06T04:55:59.214Z,13.48
2022-09-06T04:56:46.124Z,13.54
2022-09-06T04:57:32.916Z,13.58
2022-09-06T04:58:19.785Z,13.62
2022-09-06T04:59:06.674Z,13.67
2022-09-06T04:59:53.614Z,13.74
2022-09-06T05:00:41.961Z,13.78
2022-09-06T05:01:28.867Z,13.79
2022-09-06T05:02:15.888Z,13.82
2022-09-06T05:03:02.873Z,13.83
2022-09-06T05:03:52.173Z,13.84
2022-09-06T05:04:40.876Z,13.90
2022-09-06T05:05:27.743Z,13.96
2022-09-06T05:06:25.742Z,13.95
2022-09-06T05:07:12.634Z,14.01
2022-09-06T05:07:59.503Z,14.09
2022-09-06T05:08:46.703Z,14.16
2022-09-06T05:09:34.136Z,14.28
2022-09-06T05:10:21.634Z,14.36
2022-09-06T05:11:09.485Z,14.40
2022-09-06T05:11:59.814Z,14.44
2022-09-06T05:12:53.895Z,14.48
2022-09-06T05:13:41.294Z,14.58
2022-09-06T05:14:29.004Z,14.62
2022-09-06T05:15:17.333Z,14.63
2022-09-06T05:16:05.974Z,14.65
2022-09-06T05:16:53.351Z,14.65
2022-09-06T05:17:40.204Z,14.68
2022-09-06T05:18:27.142Z,14.70
2022-09-06T05:19:14.184Z,14.74
2022-09-06T05:20:01.053Z,14.74
2022-09-06T05:20:54.505Z,14.79
2022-09-06T05:21:41.283Z,14.85
2022-09-06T05:22:28.164Z,14.87
2022-09-06T05:23:15.014Z,14.90
2022-09-06T05:24:48.854Z,15.01
2022-09-06T05:25:35.703Z,15.04
2022-09-06T05:26:22.814Z,15.05
2022-09-06T05:27:09.712Z,15.08
2022-09-06T05:27:56.546Z,15.14
2022-09-06T05:28:43.522Z,15.16
2022-09-06T05:29:30.992Z,15.23
2022-09-06T05:30:18.506Z,15.31
2022-09-06T05:31:10.304Z,15.39
2022-09-06T05:31:57.666Z,15.47
2022-09-06T05:32:44.693Z,15.62
2022-09-06T05:33:31.504Z,15.71
2022-09-06T05:34:18.363Z,15.78
2022-09-06T05:35:05.404Z,15.78
2022-09-06T05:35:52.184Z,15.83
2022-09-06T05:36:39.256Z,15.85
2022-09-06T05:37:26.123Z,15.85
2022-09-06T05:38:12.974Z,15.90
2022-09-06T05:39:00.000Z,15.96
2022-09-06T05:39:47.008Z,15.98
2022-09-06T05:40:33.914Z,16.06
2022-09-06T05:41:21.914Z,16.16
2022-09-06T05:42:08.937Z,16.34
2022-09-06T05:42:55.746Z,16.52
2022-09-06T05:43:42.594Z,16.71
2022-09-06T05:44:29.404Z,16.85
2022-09-06T05:45:17.220Z,16.93
2022-09-06T05:46:04.301Z,16.91
2022-09-06T05:46:51.287Z,16.85
2022-09-06T05:47:38.654Z,16.85
2022-09-06T05:48:25.563Z,16.88
2022-09-06T05:49:13.154Z,16.94
2022-09-06T05:50:00.159Z,16.92
2022-09-06T05:50:46.951Z,16.95
2022-09-06T05:51:33.834Z,16.95
2022-09-06T05:52:20.716Z,16.97
2022-09-06T05:53:07.593Z,16.99
2022-09-06T05:53:54.497Z,17.02
2022-09-06T05:54:41.324Z,17.07
2022-09-06T05:55:28.223Z,17.09
2022-09-06T05:56:15.736Z,17.13
2022-09-06T05:57:02.744Z,17.18
2022-09-06T05:57:49.552Z,17.28
2022-09-06T05:58:36.733Z,17.46
2022-09-06T05:59:23.584Z,17.68
2022-09-06T06:00:12.365Z,17.87
2022-09-06T06:01:13.943Z,18.00
2022-09-06T06:02:03.323Z,18.23
2022-09-06T06:02:53.550Z,18.42
2022-09-06T06:03:40.544Z,18.57
2022-09-06T06:04:27.362Z,18.80
2022-09-06T06:05:14.540Z,18.98
2022-09-06T06:06:01.473Z,19.11
2022-09-06T06:06:49.496Z,19.18
2022-09-06T06:07:36.325Z,19.26
2022-09-06T06:08:23.367Z,19.38
2022-09-06T06:09:10.293Z,19.35
2022-09-06T06:09:57.215Z,19.46
2022-09-06T06:10:44.126Z,19.53
2022-09-06T06:11:31.744Z,19.65
2022-09-06T06:12:18.527Z,19.87
2022-09-06T06:13:05.495Z,20.08
2022-09-06T06:13:52.974Z,20.31
2022-09-06T06:14:39.914Z,20.65
2022-09-06T06:15:26.734Z,20.88
2022-09-06T06:16:16.826Z,21.23
2022-09-06T06:17:04.084Z,21.66
2022-09-06T06:17:50.924Z,22.03
2022-09-06T06:18:38.223Z,22.45
2022-09-06T06:19:26.834Z,22.85
2022-09-06T06:20:13.883Z,23.17
2022-09-06T06:21:15.953Z,23.31
2022-09-06T06:22:02.804Z,23.26
2022-09-06T06:22:49.624Z,23.18
2022-09-06T06:23:36.456Z,23.06
2022-09-06T06:24:23.203Z,22.98
2022-09-06T06:25:12.481Z,22.95
2022-09-06T06:25:59.544Z,22.87
2022-09-06T06:26:46.357Z,22.79
2022-09-06T06:27:35.044Z,22.80
2022-09-06T06:28:21.983Z,22.84
2022-09-06T06:29:09.823Z,22.91
2022-09-06T06:29:57.094Z,22.93
2022-09-06T06:30:44.034Z,22.74
2022-09-06T06:31:32.437Z,22.80
2022-09-06T06:32:19.274Z,22.83
2022-09-06T06:33:06.144Z,22.81
2022-09-06T06:33:53.275Z,22.86
2022-09-06T06:34:40.078Z,22.87
2022-09-06T06:35:26.873Z,22.90
2022-09-06T06:36:13.655Z,22.82
2022-09-06T06:37:00.666Z,22.85
2022-09-06T06:37:47.524Z,22.86
2022-09-06T06:38:36.423Z,22.85
2022-09-06T06:39:23.313Z,22.87
2022-09-06T06:40:10.800Z,22.95
2022-09-06T06:41:01.040Z,22.93
2022-09-06T06:41:51.354Z,22.98
2022-09-06T06:42:38.195Z,22.98
2022-09-06T06:43:25.174Z,23.00
2022-09-06T06:44:12.020Z,22.98
2022-09-06T06:44:59.034Z,22.78
2022-09-06T06:45:50.187Z,22.78
2022-09-06T06:46:38.254Z,22.79
2022-09-06T06:47:25.676Z,22.75
2022-09-06T06:48:12.678Z,22.87
2022-09-06T06:48:59.812Z,22.89
2022-09-06T06:49:46.841Z,22.89
2022-09-06T06:50:33.654Z,23.00
2022-09-06T06:51:21.713Z,23.00
2022-09-06T06:52:08.553Z,23.08
2022-09-06T06:52:55.355Z,23.11
2022-09-06T06:53:42.406Z,23.16
2022-09-06T06:54:29.993Z,23.25
2022-09-06T06:55:16.834Z,23.40
2022-09-06T06:56:30.752Z,23.48
2022-09-06T06:57:17.844Z,23.52
2022-09-06T06:58:04.734Z,23.49
2022-09-06T06:58:53.714Z,23.57
2022-09-06T06:59:40.613Z,23.68
2022-09-06T07:00:28.345Z,23.62
2022-09-06T07:01:16.515Z,23.57
2022-09-06T07:02:03.565Z,23.61
2022-09-06T07:02:50.504Z,23.64
2022-09-06T07:03:37.541Z,23.71
2022-09-06T07:04:24.456Z,23.59
2022-09-06T07:06:19.135Z,23.38
2022-09-06T07:08:13.933Z,23.41
2022-09-06T07:09:01.064Z,23.29
2022-09-06T07:10:54.905Z,23.12
2022-09-06T07:11:42.244Z,23.01
2022-09-06T07:12:29.186Z,22.99
2022-09-06T07:13:16.013Z,23.09
2022-09-06T07:14:02.906Z,23.15
2022-09-06T07:14:49.773Z,23.24
2022-09-06T07:15:36.618Z,23.29
2022-09-06T07:16:24.613Z,23.25
2022-09-06T07:17:11.561Z,23.26
2022-09-06T07:17:58.534Z,23.30
2022-09-06T07:18:46.191Z,23.31
2022-09-06T07:21:46.885Z,23.25
2022-09-06T07:22:33.816Z,23.00
2022-09-06T07:24:27.435Z,22.89
2022-09-06T07:25:19.072Z,22.87
2022-09-06T07:26:09.076Z,22.61
2022-09-06T07:28:07.284Z,22.68
2022-09-06T07:28:59.227Z,22.76
2022-09-06T07:29:46.133Z,22.87
2022-09-06T07:30:35.486Z,22.94
2022-09-06T07:32:31.350Z,23.01
2022-09-06T07:33:19.071Z,23.22
2022-09-06T07:34:06.048Z,23.27
2022-09-06T07:34:52.947Z,23.28
2022-09-06T07:35:39.792Z,23.43
2022-09-06T07:36:26.873Z,23.49
2022-09-06T07:37:13.682Z,23.58
2022-09-06T07:38:01.345Z,23.61
2022-09-06T07:38:50.189Z,23.62
2022-09-06T07:39:37.329Z,23.58
2022-09-06T07:40:25.668Z,23.58
2022-09-06T07:41:12.758Z,23.71
2022-09-06T07:41:59.704Z,23.78
2022-09-06T07:42:57.117Z,23.81
2022-09-06T07:43:44.905Z,23.76
2022-09-06T07:44:31.746Z,23.90
2022-09-06T07:45:19.274Z,24.01
2022-09-06T07:46:10.991Z,24.06
2022-09-06T07:48:04.918Z,24.13
2022-09-06T07:48:51.976Z,24.08
2022-09-06T07:49:39.405Z,24.14
2022-09-06T07:51:30.586Z,24.44
2022-09-06T07:53:30.443Z,24.63
2022-09-06T07:54:33.322Z,24.71
2022-09-06T07:55:20.280Z,24.83
2022-09-06T07:56:09.373Z,24.96
2022-09-06T07:56:56.205Z,25.02
2022-09-06T07:57:43.041Z,25.05
2022-09-06T07:58:30.622Z,25.15
2022-09-06T07:59:17.500Z,25.17
2022-09-06T08:00:05.408Z,25.30
2022-09-06T08:00:52.254Z,25.37
2022-09-06T08:01:39.611Z,25.34
2022-09-06T08:02:26.575Z,25.42
2022-09-06T08:03:13.478Z,25.40
2022-09-06T08:04:05.874Z,25.41
2022-09-06T08:04:52.774Z,25.33
2022-09-06T08:09:02.924Z,25.47
2022-09-06T08:09:49.742Z,25.56
2022-09-06T08:10:36.561Z,25.50
2022-09-06T08:11:25.795Z,25.43
2022-09-06T08:12:12.753Z,25.42
2022-09-06T08:12:59.556Z,25.44
2022-09-06T08:13:50.536Z,25.36
2022-09-06T08:14:37.418Z,25.29
2022-09-06T08:15:24.285Z,25.25
2022-09-06T08:16:12.769Z,25.26
2022-09-06T08:17:00.091Z,25.22
2022-09-06T08:17:51.288Z,25.11
2022-09-06T08:18:38.383Z,25.11
2022-09-06T08:19:25.392Z,24.80
2022-09-06T08:20:13.031Z,24.82
2022-09-06T08:21:12.748Z,24.87
2022-09-06T08:21:59.829Z,24.96
2022-09-06T08:22:46.647Z,25.01
2022-09-06T08:23:33.507Z,25.06
2022-09-06T08:24:20.787Z,25.11
2022-09-06T08:25:08.116Z,25.19
2022-09-06T08:25:58.849Z,25.17
2022-09-06T08:26:45.953Z,25.11
2022-09-06T08:27:32.824Z,25.13
2022-09-06T08:28:19.632Z,25.12
2022-09-06T08:29:07.851Z,25.16
2022-09-06T08:29:54.707Z,25.15
2022-09-06T08:30:41.597Z,25.16
2022-09-06T08:31:30.281Z,25.04
2022-09-06T08:32:17.284Z,25.04
2022-09-06T08:33:04.112Z,25.16
2022-09-06T08:33:51.953Z,25.21
2022-09-06T08:34:39.072Z,25.24
2022-09-06T08:35:25.844Z,25.22
2022-09-06T08:36:13.938Z,25.36
2022-09-06T08:37:00.769Z,25.43
2022-09-06T08:37:47.533Z,25.37
2022-09-06T08:38:34.934Z,25.43
2022-09-06T08:39:21.994Z,25.43
2022-09-06T08:40:09.382Z,25.55
2022-09-06T08:41:08.094Z,25.66
2022-09-06T08:42:03.946Z,25.74
2022-09-06T08:42:51.122Z,25.81
2022-09-06T08:43:38.895Z,25.93
2022-09-06T08:44:57.034Z,25.99
2022-09-06T08:45:45.210Z,25.97
2022-09-06T08:46:59.823Z,26.08
2022-09-06T08:47:46.762Z,26.04
2022-09-06T08:48:37.278Z,26.04
2022-09-06T08:49:27.545Z,26.11
2022-09-06T08:50:14.470Z,26.06
2022-09-06T08:51:27.721Z,26.05
2022-09-06T08:53:13.652Z,26.13
2022-09-06T08:54:09.602Z,26.23
2022-09-06T08:55:17.928Z,26.28
2022-09-06T08:56:13.576Z,26.27
2022-09-06T08:57:22.214Z,26.33
2022-09-06T08:58:55.101Z,26.31
2022-09-06T08:59:43.313Z,26.32
2022-09-06T09:00:31.217Z,26.21
2022-09-06T09:01:23.340Z,26.02
2022-09-06T09:02:19.353Z,25.97
2022-09-06T09:03:16.788Z,26.02
2022-09-06T09:04:05.595Z,26.18
2022-09-06T09:04:56.233Z,26.32
2022-09-06T09:05:44.161Z,26.27
2022-09-06T09:06:32.966Z,26.31
2022-09-06T09:07:48.190Z,26.39
2022-09-06T09:09:02.335Z,26.46
2022-09-06T09:09:49.871Z,26.70
2022-09-06T09:10:42.958Z,26.87
2022-09-06T09:11:30.145Z,26.94
2022-09-06T09:12:18.145Z,27.04
2022-09-06T09:13:07.520Z,27.07
2022-09-06T09:14:09.271Z,27.13
2022-09-06T09:15:01.554Z,27.17
2022-09-06T09:15:48.495Z,27.28
2022-09-06T09:16:35.573Z,27.22
2022-09-06T09:17:28.311Z,27.03
2022-09-06T09:18:18.111Z,27.02
2022-09-06T09:19:05.784Z,27.08
2022-09-06T09:19:52.953Z,27.17
2022-09-06T09:20:40.072Z,27.17
2022-09-06T09:21:31.180Z,27.12
2022-09-06T09:22:19.717Z,27.05
2022-09-06T09:23:06.779Z,27.09
2022-09-06T09:23:55.897Z,27.09
2022-09-06T09:24:42.973Z,27.11
2022-09-06T09:25:32.468Z,27.12
2022-09-06T09:26:20.603Z,27.24
2022-09-06T09:27:11.369Z,27.35
2022-09-06T09:27:58.762Z,27.29
2022-09-06T09:29:08.759Z,27.26
2022-09-06T09:31:07.292Z,27.39
2022-09-06T09:31:55.513Z,27.57
2022-09-06T09:32:45.397Z,27.59
2022-09-06T09:33:39.069Z,27.70
2022-09-06T09:34:33.450Z,27.91
2022-09-06T09:35:34.248Z,28.02
2022-09-06T09:36:21.610Z,28.10
2022-09-06T09:38:40.227Z,28.11
2022-09-06T09:39:35.170Z,28.17
2022-09-06T09:40:25.212Z,28.34
2022-09-06T09:41:28.058Z,28.39
2022-09-06T09:42:25.119Z,28.25
2022-09-06T09:43:16.619Z,28.20
2022-09-06T09:44:06.205Z,28.20
2022-09-06T09:44:53.203Z,28.00
2022-09-06T09:45:40.078Z,27.95
2022-09-06T09:46:26.954Z,28.08
2022-09-06T09:47:28.763Z,28.07
2022-09-06T09:48:20.787Z,28.03
2022-09-06T09:49:13.735Z,27.98
2022-09-06T09:50:00.570Z,28.03
2022-09-06T09:50:47.942Z,28.00
2022-09-06T09:51:36.891Z,27.96
2022-09-06T09:52:29.596Z,28.06
2022-09-06T09:53:21.671Z,28.26
2022-09-06T09:54:11.472Z,28.37
2022-09-06T09:55:01.741Z,28.33
2022-09-06T09:55:55.829Z,28.37
2022-09-06T09:56:53.192Z,28.33
2022-09-06T09:57:48.424Z,28.51
2022-09-06T09:58:36.260Z,28.50
2022-09-06T09:59:42.961Z,28.63
2022-09-06T10:00:40.710Z,28.67
2022-09-06T10:01:33.803Z,28.53
2022-09-06T10:02:20.474Z,28.61
2022-09-06T10:03:13.056Z,28.67
2022-09-06T10:05:17.594Z,28.87
2022-09-06T10:06:05.026Z,28.98
2022-09-06T10:07:14.372Z,28.77
2022-09-06T10:08:01.236Z,28.55
2022-09-06T10:08:48.150Z,28.54
2022-09-06T10:09:40.823Z,28.31
2022-09-06T10:10:29.298Z,28.31
2022-09-06T10:11:16.101Z,28.25
2022-09-06T10:12:03.495Z,28.15
2022-09-06T10:13:33.278Z,28.16
2022-09-06T10:14:33.255Z,28.18
2022-09-06T10:15:34.743Z,28.07
2022-09-06T10:16:42.005Z,28.21
2022-09-06T10:17:30.890Z,28.26
2022-09-06T10:18:32.556Z,28.28
2022-09-06T10:19:43.184Z,28.24
2022-09-06T10:20:34.450Z,28.44
2022-09-06T10:21:24.292Z,28.42
2022-09-06T10:22:34.195Z,28.43
2022-09-06T10:25:15.497Z,28.47
2022-09-06T10:26:02.250Z,28.42
2022-09-06T10:26:53.830Z,28.27
2022-09-06T10:28:15.460Z,28.25
2022-09-06T10:29:07.275Z,28.21
2022-09-06T10:30:04.690Z,28.01
2022-09-06T10:31:06.667Z,28.10
2022-09-06T10:32:25.678Z,28.08
2022-09-06T10:33:50.402Z,28.14
2022-09-06T10:35:09.530Z,28.15
2022-09-06T10:35:58.097Z,28.10
2022-09-06T10:37:23.366Z,28.04
2022-09-06T10:38:36.905Z,27.89
2022-09-06T10:39:39.431Z,27.70
2022-09-06T10:40:47.742Z,27.65
2022-09-06T10:41:43.543Z,27.57
2022-09-06T10:42:48.933Z,27.59
2022-09-06T10:44:14.234Z,27.64
2022-09-06T10:45:06.839Z,27.76
2022-09-06T10:46:02.120Z,27.89
2022-09-06T10:46:52.879Z,28.00
2022-09-06T10:47:56.363Z,28.15
2022-09-06T10:48:45.972Z,28.17
2022-09-06T10:49:34.255Z,28.30
2022-09-06T10:50:22.610Z,28.34
2022-09-06T10:51:33.824Z,28.20
2022-09-06T10:52:28.811Z,28.18
2022-09-06T10:53:24.260Z,28.16
2022-09-06T10:54:12.592Z,28.21
2022-09-06T10:55:05.517Z,28.32
2022-09-06T10:56:03.370Z,28.29
2022-09-06T10:57:01.031Z,28.12
2022-09-06T11:00:19.995Z,27.92
2022-09-06T11:01:08.804Z,27.96
2022-09-06T11:02:11.003Z,28.06
2022-09-06T11:05:53.626Z,28.21
2022-09-06T11:06:45.815Z,28.41
2022-09-06T11:07:37.175Z,28.41
2022-09-06T11:08:58.438Z,28.43
2022-09-06T11:09:47.836Z,28.05
2022-09-06T11:10:40.346Z,27.75
2022-09-06T11:11:35.749Z,27.81
2022-09-06T11:12:53.542Z,27.58
2022-09-06T11:13:40.294Z,27.60
2022-09-06T11:14:27.822Z,27.74
2022-09-06T11:15:16.290Z,27.77
2022-09-06T11:16:14.251Z,27.86
2022-09-06T11:17:09.207Z,27.96
2022-09-06T11:18:18.779Z,28.05
2022-09-06T11:19:17.711Z,28.19
2022-09-06T11:20:23.341Z,28.13
2022-09-06T11:21:34.742Z,28.23